Kezdőlap
METAR-TAF:

METAR-TAF

Repülőterek :

Boscobel Airport

Boscobel, Wisconsin, Amerikai Egyesült Államok

földrajzi szélesség: 43-09-22N, földrajzi hosszúság: 090-40-39W, magasság: 205 m

Jelenlegi meteorológiai megfigyelések

A jelentés 36 perccel ezelõtt készült, 15:53 UTC
Északnyugati szél 6 kt
Hőmérséklet 12°C
Páratartalom 76%
Légköri nyomás 1018 hPa
Látótávolság: 16.1 km
Szórványos felhőzet 1900 lábon
Szakadozott felhőzet 2600 lábon
Borult 5500 lábon

METAR: KOVS 011553Z AUTO 32006KT 10SM SCT019 BKN026 OVC055 12/08 A3007 RMK AO2 SLP187 T01170078 $

Idő: 11:29 (16:29 UTC)


TAF: hiányzik

Meteorológiai megfigyelések és előrejelzések több, mint 4000 repülőtéren (METAR és TAF jelentéseket).

A térképen piros és sárga pontok jelzik az elérhető meteorológiai állomásokat.

Mozgassa az egeret a pont fölött, hogy megjelenjen az állomás neve.

Azután kattintson az időjárási megfigyelések és előrejelzések megtekintéséhez.

A térkép megváltoztatása: kattintson a fekete keresztel jelölt zöld gombra ráközelítéshez, a vonallal jelölt zöld gombra távolításhoz, vagy a zöld nyilakra a szomszédos térképek eléréséhez.


METAR-TAF: